Time;durP1;ratioP1;P1;durP2;ratioP2;P2;SDS_P1;SDS_P2;PMS_P1;PMS_P2;Temp;Humidity;BMP_temperature;BMP_pressure;BME280_temperature;BME280_humidity;BME280_pressure;Samples;Min_cycle;Max_cycle;Signal;HPM_P1;HPM_P2
2021/04/22 00:00:05;;;;;;;23.88;13.55;;;;;;;12.20;46.83;99609.25;3554207;40;20060;-68
2021/04/22 00:02:31;;;;;;;28.33;13.80;;;;;;;12.19;46.95;99597.03;3558097;40;20520;-68
2021/04/22 00:04:57;;;;;;;23.83;14.07;;;;;;;12.16;47.16;99608.56;3557835;40;20041;-69
2021/04/22 00:07:24;;;;;;;23.10;13.40;;;;;;;12.17;47.45;99598.91;3557141;40;20116;-68
2021/04/22 00:09:50;;;;;;;21.10;14.07;;;;;;;12.17;47.67;99604.16;3562967;40;20038;-69
2021/04/22 00:12:17;;;;;;;20.98;13.88;;;;;;;12.16;47.76;99612.97;3555880;40;20077;-68
2021/04/22 00:14:44;;;;;;;19.40;13.10;;;;;;;12.14;48.05;99615.69;3557501;40;20049;-69
2021/04/22 00:17:11;;;;;;;24.20;14.20;;;;;;;12.14;47.87;99615.69;3556514;40;20353;-69
2021/04/22 00:19:37;;;;;;;20.48;13.50;;;;;;;12.11;48.28;99607.97;3554802;40;20310;-68
2021/04/22 00:22:04;;;;;;;22.65;12.60;;;;;;;12.08;48.41;99604.69;3558494;40;20052;-67
2021/04/22 00:24:31;;;;;;;23.52;14.15;;;;;;;12.07;48.78;99605.59;3556538;40;20057;-69
2021/04/22 00:27:05;;;;;;;18.52;13.45;;;;;;;12.05;48.94;99631.09;3562351;40;20038;-69
2021/04/22 00:29:31;;;;;;;21.77;13.90;;;;;;;12.03;49.08;99622.44;3556448;40;20037;-69
2021/04/22 00:32:02;;;;;;;23.92;14.00;;;;;;;12.01;49.50;99630.41;3560943;40;20053;-68
2021/04/22 00:34:28;;;;;;;18.98;12.80;;;;;;;12.01;49.49;99640.06;3557239;40;20058;-69
2021/04/22 00:36:54;;;;;;;18.98;12.25;;;;;;;11.92;49.96;99637.97;3556263;40;20041;-69
2021/04/22 00:39:21;;;;;;;18.90;11.95;;;;;;;11.83;50.13;99645.38;3556601;40;20136;-69
2021/04/22 00:41:47;;;;;;;18.70;11.65;;;;;;;11.79;50.25;99643.84;3557179;40;20098;-69
2021/04/22 00:44:13;;;;;;;17.02;10.45;;;;;;;11.75;50.16;99629.16;3558340;40;20049;-69
2021/04/22 00:46:40;;;;;;;18.13;11.63;;;;;;;11.74;50.25;99637.13;3559800;40;20130;-69
2021/04/22 00:49:07;;;;;;;17.80;11.13;;;;;;;11.66;50.35;99640.16;3557752;40;20052;-68
2021/04/22 00:51:33;;;;;;;18.60;11.90;;;;;;;11.60;50.57;99643.09;3556278;40;20038;-69
2021/04/22 00:54:00;;;;;;;14.73;10.68;;;;;;;11.49;50.66;99642.81;3556616;40;20038;-68
2021/04/22 00:56:27;;;;;;;19.90;10.93;;;;;;;11.41;51.03;99629.22;3556728;40;20042;-67
2021/04/22 00:58:53;;;;;;;17.73;10.75;;;;;;;11.35;51.19;99647.91;3557188;40;20041;-68
2021/04/22 01:01:19;;;;;;;14.98;9.95;;;;;;;11.28;51.20;99635.09;3560635;40;20433;-69
2021/04/22 01:03:46;;;;;;;15.40;10.70;;;;;;;11.23;51.34;99631.84;3556502;40;20042;-68
2021/04/22 01:06:13;;;;;;;14.95;10.23;;;;;;;11.17;51.44;99642.66;3556639;40;20038;-68
2021/04/22 01:08:40;;;;;;;15.55;9.88;;;;;;;11.06;51.62;99650.22;3555882;40;20042;-68
2021/04/22 01:11:07;;;;;;;14.82;10.60;;;;;;;10.91;52.00;99653.59;3556537;40;20038;-67
2021/04/22 01:13:33;;;;;;;15.60;10.35;;;;;;;10.73;52.38;99652.72;3557683;40;20411;-68
2021/04/22 01:15:59;;;;;;;13.38;9.13;;;;;;;10.56;52.73;99661.38;3557616;40;20054;-68
2021/04/22 01:18:25;;;;;;;17.83;10.35;;;;;;;10.44;52.95;99666.38;3553804;40;20040;-68
2021/04/22 01:20:53;;;;;;;14.52;9.05;;;;;;;10.31;53.10;99672.19;3557230;40;20078;-68
2021/04/22 01:23:20;;;;;;;14.30;8.95;;;;;;;10.22;53.31;99666.53;3556903;40;20116;-68
2021/04/22 01:25:48;;;;;;;17.10;10.15;;;;;;;10.14;53.51;99668.59;3556758;40;20049;-68
2021/04/22 01:28:16;;;;;;;14.27;9.77;;;;;;;10.03;53.70;99683.03;3557264;40;20069;-68
2021/04/22 01:30:44;;;;;;;16.98;10.48;;;;;;;9.93;53.96;99679.13;3557292;40;20034;-67
2021/04/22 01:33:12;;;;;;;15.23;10.35;;;;;;;9.85;53.95;99689.09;3556631;40;20427;-69
2021/04/22 01:35:41;;;;;;;16.70;9.88;;;;;;;9.76;54.32;99703.41;3553516;40;20034;-69
2021/04/22 01:38:09;;;;;;;17.65;9.95;;;;;;;9.69;54.40;99706.38;3557785;40;20345;-69
2021/04/22 01:40:38;;;;;;;19.90;12.02;;;;;;;9.63;54.70;99712.75;3556785;40;20334;-68
2021/04/22 01:43:05;;;;;;;21.45;11.50;;;;;;;9.58;54.79;99711.22;3556113;40;20042;-67
2021/04/22 01:45:32;;;;;;;19.20;12.02;;;;;;;9.50;55.10;99708.09;3556120;40;20038;-67
2021/04/22 01:47:58;;;;;;;19.52;11.45;;;;;;;9.43;55.32;99715.34;3559162;40;20042;-67
2021/04/22 01:50:26;;;;;;;19.67;11.63;;;;;;;9.37;55.56;99724.31;3558523;40;20421;-67
2021/04/22 01:52:54;;;;;;;19.38;12.10;;;;;;;9.29;55.82;99715.91;3557488;40;20071;-68
2021/04/22 01:55:23;;;;;;;19.42;11.57;;;;;;;9.21;56.18;99711.94;3557456;40;20053;-67
2021/04/22 01:57:51;;;;;;;24.23;13.05;;;;;;;9.14;56.18;99712.16;3563571;40;20095;-67
2021/04/22 02:00:21;;;;;;;15.73;10.85;;;;;;;9.06;56.49;99714.25;3559574;40;20064;-68
2021/04/22 02:02:47;;;;;;;19.73;11.83;;;;;;;9.02;56.51;99709.22;3558308;40;20038;-67
2021/04/22 02:05:14;;;;;;;17.73;11.55;;;;;;;8.98;56.86;99715.47;3557752;40;20045;-68
2021/04/22 02:07:40;;;;;;;17.15;12.18;;;;;;;8.97;56.76;99713.78;3557424;40;20069;-68
2021/04/22 02:10:09;;;;;;;18.73;10.52;;;;;;;9.03;56.66;99708.31;3559594;40;20061;-66
2021/04/22 02:12:37;;;;;;;17.50;11.05;;;;;;;9.10;56.54;99707.13;3558394;40;20074;-67
2021/04/22 02:15:08;;;;;;;17.52;10.10;;;;;;;9.18;56.42;99697.22;3556557;40;20413;-67
2021/04/22 02:17:34;;;;;;;15.38;9.57;;;;;;;9.31;56.05;99692.31;3556056;40;20062;-67
2021/04/22 02:20:00;;;;;;;18.80;10.60;;;;;;;9.38;55.87;99681.53;3557817;40;20049;-66
2021/04/22 02:22:27;;;;;;;17.40;10.05;;;;;;;9.41;55.88;99667.47;3558546;40;20095;-66
2021/04/22 02:24:53;;;;;;;14.57;9.25;;;;;;;9.43;55.67;99682.19;3564726;40;20034;-67
2021/04/22 02:27:19;;;;;;;13.25;9.15;;;;;;;9.44;55.88;99683.88;3557275;40;20264;-67
2021/04/22 02:29:46;;;;;;;15.55;9.13;;;;;;;9.47;55.65;99685.53;3559300;40;20050;-67
2021/04/22 02:32:13;;;;;;;13.32;8.38;;;;;;;9.46;55.54;99687.28;3558763;40;20045;-67
2021/04/22 02:34:39;;;;;;;13.43;8.48;;;;;;;9.51;55.35;99683.63;3557608;40;20077;-68
2021/04/22 02:37:06;;;;;;;17.65;8.52;;;;;;;9.52;55.16;99685.31;3559696;40;20038;-67
2021/04/22 02:39:32;;;;;;;14.35;7.80;;;;;;;9.51;55.13;99687.09;3557640;40;20405;-67
2021/04/22 02:41:59;;;;;;;12.27;7.13;;;;;;;9.47;55.10;99704.69;3558251;40;20038;-67
2021/04/22 02:44:25;;;;;;;12.18;7.10;;;;;;;9.37;55.25;99702.50;3562105;40;20354;-67
2021/04/22 02:46:51;;;;;;;12.80;7.80;;;;;;;9.25;55.46;99711.72;3560805;40;20099;-68
2021/04/22 02:49:18;;;;;;;12.00;7.88;;;;;;;9.16;55.57;99723.44;3557582;40;20038;-67
2021/04/22 02:51:45;;;;;;;11.75;7.53;;;;;;;9.13;55.76;99726.16;3558799;40;20082;-67
2021/04/22 02:54:14;;;;;;;11.90;7.53;;;;;;;9.12;55.69;99734.06;3559534;40;20033;-67
2021/04/22 02:56:40;;;;;;;13.45;6.85;;;;;;;9.25;55.31;99745.75;3560842;40;20044;-67
2021/04/22 02:59:06;;;;;;;11.15;7.18;;;;;;;9.39;54.96;99737.34;3557885;40;20120;-67
2021/04/22 03:01:34;;;;;;;11.30;6.50;;;;;;;9.48;54.70;99727.31;3559992;40;20060;-67
2021/04/22 03:04:00;;;;;;;18.45;7.50;;;;;;;9.50;54.53;99711.56;3558751;40;20399;-68
2021/04/22 03:06:27;;;;;;;14.60;7.13;;;;;;;9.55;54.62;99729.66;3562856;40;20147;-67
2021/04/22 03:08:54;;;;;;;15.10;7.75;;;;;;;9.64;54.27;99713.59;3556455;40;20428;-68
2021/04/22 03:11:20;;;;;;;11.90;6.82;;;;;;;9.69;54.32;99703.75;3557361;40;20034;-68
2021/04/22 03:13:46;;;;;;;9.73;6.70;;;;;;;9.73;54.46;99721.03;3555716;40;20038;-67
2021/04/22 03:16:12;;;;;;;10.35;6.15;;;;;;;9.74;54.28;99727.97;3557162;40;20040;-67
2021/04/22 03:18:39;;;;;;;9.95;6.30;;;;;;;9.72;54.07;99735.03;3556799;40;20481;-67
2021/04/22 03:21:05;;;;;;;16.15;5.55;;;;;;;9.64;54.02;99752.84;3557064;40;20050;-67
2021/04/22 03:23:32;;;;;;;8.07;5.47;;;;;;;9.55;53.94;99753.22;3557196;40;20219;-67
2021/04/22 03:25:59;;;;;;;8.65;3.83;;;;;;;9.45;54.12;99758.84;3558407;40;20073;-67
2021/04/22 03:28:25;;;;;;;7.95;3.60;;;;;;;9.40;54.02;99755.56;3560021;40;20046;-68
2021/04/22 03:30:51;;;;;;;9.52;4.00;;;;;;;9.33;54.19;99754.09;3564754;40;20072;-67
2021/04/22 03:33:18;;;;;;;5.75;3.47;;;;;;;9.31;54.15;99755.94;3558247;40;20042;-67
2021/04/22 03:35:44;;;;;;;10.48;4.53;;;;;;;9.28;54.46;99750.84;3556825;40;20134;-67
2021/04/22 03:38:10;;;;;;;6.45;3.90;;;;;;;9.23;54.68;99758.03;3557154;40;20045;-67
2021/04/22 03:40:38;;;;;;;6.63;4.22;;;;;;;9.19;54.95;99756.47;3558243;40;20048;-67
2021/04/22 03:43:04;;;;;;;5.78;3.55;;;;;;;9.12;55.07;99766.28;3557788;40;20378;-68
2021/04/22 03:45:31;;;;;;;10.68;4.45;;;;;;;9.01;55.14;99768.50;3564652;40;20119;-67
2021/04/22 03:47:57;;;;;;;11.40;3.60;;;;;;;8.98;55.25;99778.22;3557573;40;20037;-67
2021/04/22 03:50:24;;;;;;;7.75;3.63;;;;;;;8.94;55.15;99776.63;3557804;40;20074;-68
2021/04/22 03:52:51;;;;;;;9.52;4.43;;;;;;;8.93;54.95;99780.16;3557318;40;20288;-67
2021/04/22 03:55:19;;;;;;;6.55;3.88;;;;;;;8.93;54.99;99793.22;3561516;40;20052;-67
2021/04/22 03:57:47;;;;;;;14.55;4.18;;;;;;;8.88;54.90;99798.63;3557414;40;20046;-67
2021/04/22 04:00:18;;;;;;;12.95;5.57;;;;;;;8.82;55.02;99814.56;3557228;40;20044;-68
2021/04/22 04:02:45;;;;;;;15.25;7.70;;;;;;;8.81;55.31;99810.25;3555784;40;20034;-68
2021/04/22 04:05:12;;;;;;;15.10;9.40;;;;;;;8.71;56.08;99814.09;3558614;40;20034;-68
2021/04/22 04:07:38;;;;;;;15.57;9.40;;;;;;;8.66;56.28;99814.28;3564452;40;20042;-68
2021/04/22 04:10:07;;;;;;;16.58;7.57;;;;;;;8.53;56.81;99828.69;3556764;40;20067;-67
2021/04/22 04:12:33;;;;;;;14.60;5.97;;;;;;;8.42;57.31;99821.25;3556876;40;20040;-66
2021/04/22 04:15:01;;;;;;;13.85;6.15;;;;;;;8.38;57.73;99816.22;3554582;40;20456;-67
2021/04/22 04:17:28;;;;;;;8.75;4.78;;;;;;;8.32;58.05;99808.53;3557352;40;20041;-67
2021/04/22 04:19:54;;;;;;;5.72;3.78;;;;;;;8.31;58.02;99812.91;3560615;40;20046;-67
2021/04/22 04:22:20;;;;;;;7.68;4.50;;;;;;;8.42;57.88;99820.41;3556284;40;20301;-68
2021/04/22 04:24:47;;;;;;;10.50;6.22;;;;;;;8.45;57.76;99815.06;3558290;40;20073;-68
2021/04/22 04:27:13;;;;;;;14.38;6.60;;;;;;;8.44;57.78;99815.97;3556836;40;20064;-67
2021/04/22 04:29:39;;;;;;;13.10;5.05;;;;;;;8.42;58.03;99825.63;3557175;40;20389;-67
2021/04/22 04:32:07;;;;;;;13.80;5.90;;;;;;;8.43;58.05;99835.16;3558955;40;20059;-67
2021/04/22 04:34:33;;;;;;;19.35;6.70;;;;;;;8.49;58.14;99824.50;3558461;40;20030;-67
2021/04/22 04:37:02;;;;;;;11.38;6.72;;;;;;;8.52;58.38;99816.53;3558092;40;20134;-67
2021/04/22 04:39:28;;;;;;;14.25;6.05;;;;;;;8.60;58.18;99829.34;3558342;40;20042;-67
2021/04/22 04:41:55;;;;;;;12.23;6.90;;;;;;;8.61;58.30;99838.88;3558789;40;20053;-66
2021/04/22 04:44:21;;;;;;;13.65;6.90;;;;;;;8.62;58.43;99838.81;3558227;40;20042;-67
2021/04/22 04:46:47;;;;;;;14.30;6.18;;;;;;;8.65;58.51;99843.06;3558480;40;20040;-68
2021/04/22 04:49:15;;;;;;;13.00;6.85;;;;;;;8.63;58.70;99850.97;3556959;40;20085;-66
2021/04/22 04:51:41;;;;;;;14.07;8.10;;;;;;;8.63;58.97;99856.22;3558193;40;20050;-67
2021/04/22 04:54:07;;;;;;;21.45;8.68;;;;;;;8.61;59.13;99863.25;3562372;40;20049;-67
2021/04/22 04:56:33;;;;;;;12.65;7.32;;;;;;;8.61;59.35;99873.69;3568737;40;20907;-67
2021/04/22 04:59:00;;;;;;;13.65;6.85;;;;;;;8.64;59.61;99875.34;3568325;40;20409;-67
2021/04/22 05:01:26;;;;;;;14.32;6.95;;;;;;;8.63;59.54;99881.47;3575757;40;20029;-67
2021/04/22 05:03:52;;;;;;;17.55;6.18;;;;;;;8.60;59.49;99877.22;3568531;40;20115;-68
2021/04/22 05:06:19;;;;;;;17.08;7.15;;;;;;;8.63;59.67;99861.44;3568755;40;20044;-68
2021/04/22 05:08:45;;;;;;;26.38;12.07;;;;;;;8.72;59.23;99871.53;3568213;40;20151;-68
2021/04/22 05:11:12;;;;;;;26.77;12.35;;;;;;;8.83;59.22;99869.38;3568478;40;20030;-69
2021/04/22 05:13:38;;;;;;;16.75;8.57;;;;;;;8.92;59.09;99869.94;3567282;40;20041;-68
2021/04/22 05:16:05;;;;;;;15.50;8.75;;;;;;;9.01;59.25;99864.38;3566836;40;20037;-67
2021/04/22 05:18:31;;;;;;;19.30;8.82;;;;;;;9.17;58.88;99868.13;3555880;40;20045;-66
2021/04/22 05:20:58;;;;;;;19.05;7.97;;;;;;;9.27;58.90;99874.69;3557377;40;20046;-67
2021/04/22 05:23:25;;;;;;;12.00;6.72;;;;;;;9.27;59.20;99869.47;3541453;40;20053;-67
2021/04/22 05:25:54;;;;;;;9.70;5.80;;;;;;;9.24;59.05;99877.44;3539376;40;20279;-67
2021/04/22 05:28:20;;;;;;;14.13;6.47;;;;;;;9.16;59.35;99875.13;3549028;40;20038;-67
2021/04/22 05:30:47;;;;;;;15.43;8.68;;;;;;;9.14;59.36;99883.91;3552605;40;20124;-68
2021/04/22 05:33:14;;;;;;;19.73;10.18;;;;;;;9.07;59.41;99892.91;3547982;40;20050;-69
2021/04/22 05:35:40;;;;;;;18.45;8.70;;;;;;;9.05;59.31;99889.50;3562797;40;20068;-69
2021/04/22 05:38:07;;;;;;;13.02;7.07;;;;;;;9.08;58.96;99895.47;3546323;40;20030;-68
2021/04/22 05:40:34;;;;;;;13.18;6.63;;;;;;;9.12;59.00;99885.72;3545271;40;20049;-69
2021/04/22 05:43:00;;;;;;;11.43;7.25;;;;;;;9.14;58.86;99890.00;3548251;40;20359;-69
2021/04/22 05:45:27;;;;;;;16.80;8.93;;;;;;;9.25;58.47;99892.22;3542086;40;20075;-69
2021/04/22 05:47:54;;;;;;;26.40;15.35;;;;;;;9.42;58.09;99888.94;3543712;40;20292;-69
2021/04/22 05:50:21;;;;;;;20.60;10.80;;;;;;;9.55;57.93;99878.81;3542963;40;20120;-69
2021/04/22 05:52:47;;;;;;;18.73;9.68;;;;;;;9.82;57.17;99882.97;3547874;40;20113;-68
2021/04/22 05:55:16;;;;;;;14.55;7.60;;;;;;;10.08;56.44;99884.50;3546631;40;20043;-69
2021/04/22 05:57:44;;;;;;;11.43;5.95;;;;;;;10.35;55.82;99885.97;3544638;40;20349;-69
2021/04/22 06:00:14;;;;;;;10.90;5.38;;;;;;;10.74;55.10;99877.25;3541939;40;20315;-69
2021/04/22 06:02:41;;;;;;;12.95;5.78;;;;;;;11.22;53.67;99874.16;3547522;40;20058;-69
2021/04/22 06:05:08;;;;;;;12.80;5.70;;;;;;;11.50;52.91;99875.50;3547224;40;20088;-69
2021/04/22 06:07:34;;;;;;;8.32;5.82;;;;;;;11.75;52.82;99886.50;3550142;40;20407;-69
2021/04/22 06:10:00;;;;;;;14.50;6.90;;;;;;;12.30;51.92;99882.94;3563454;40;20055;-71
2021/04/22 06:12:27;;;;;;;11.95;5.90;;;;;;;12.52;50.92;99881.75;3559324;40;20030;-69
2021/04/22 06:14:54;;;;;;;8.45;4.97;;;;;;;13.16;49.72;99881.88;3552527;40;20416;-69
2021/04/22 06:17:20;;;;;;;11.20;4.88;;;;;;;14.17;47.63;99879.66;3548998;40;20364;-69
2021/04/22 06:19:47;;;;;;;18.38;6.60;;;;;;;15.23;45.42;99873.13;3547823;40;20038;-68
2021/04/22 06:22:13;;;;;;;9.05;4.28;;;;;;;15.91;43.57;99869.59;3549968;40;20074;-69
2021/04/22 06:24:39;;;;;;;13.32;4.35;;;;;;;15.77;42.97;99882.88;3548938;40;20058;-68
2021/04/22 06:27:06;;;;;;;9.63;4.78;;;;;;;15.74;42.95;99883.09;3556812;40;20038;-68
2021/04/22 06:29:32;;;;;;;15.07;5.82;;;;;;;15.43;42.85;99890.34;3548047;40;20071;-69
2021/04/22 06:31:59;;;;;;;8.75;4.25;;;;;;;15.05;42.10;99894.53;3546906;40;20047;-68
2021/04/22 06:34:26;;;;;;;6.85;3.17;;;;;;;15.08;41.84;99895.19;3546459;40;20120;-69
2021/04/22 06:36:52;;;;;;;5.93;3.22;;;;;;;15.31;41.07;99904.31;3548005;40;20043;-68
2021/04/22 06:39:19;;;;;;;6.32;3.45;;;;;;;15.33;40.44;99904.22;3550247;40;20041;-68
2021/04/22 06:41:45;;;;;;;10.30;3.88;;;;;;;15.38;40.41;99907.41;3558323;40;20042;-68
2021/04/22 06:44:12;;;;;;;10.52;3.65;;;;;;;15.56;39.79;99912.34;3558795;40;20034;-67
2021/04/22 06:46:39;;;;;;;7.45;3.50;;;;;;;15.82;39.24;99917.78;3559450;40;20050;-68
2021/04/22 06:49:06;;;;;;;6.00;3.50;;;;;;;15.49;38.69;99923.44;3559068;40;20046;-69
2021/04/22 06:51:32;;;;;;;10.98;4.10;;;;;;;15.74;37.74;99931.50;3559482;40;20030;-68
2021/04/22 06:53:59;;;;;;;10.63;3.70;;;;;;;16.34;35.33;99930.22;3559424;40;20042;-68
2021/04/22 06:56:25;;;;;;;11.57;4.07;;;;;;;17.45;33.15;99938.34;3559265;40;20046;-68
2021/04/22 06:58:52;;;;;;;8.45;4.00;;;;;;;18.91;30.75;99934.53;3559018;40;20073;-69
2021/04/22 07:01:19;;;;;;;9.52;3.78;;;;;;;20.70;28.12;99939.47;3559050;40;20040;-70
2021/04/22 07:03:45;;;;;;;9.45;4.85;;;;;;;21.78;26.17;99931.78;3558013;40;20034;-68
2021/04/22 07:06:13;;;;;;;12.18;4.55;;;;;;;21.55;25.77;99937.34;3547275;40;20118;-71
2021/04/22 07:08:41;;;;;;;10.32;3.80;;;;;;;21.98;25.27;99932.63;3545948;40;20067;-69
2021/04/22 07:11:07;;;;;;;11.77;3.75;;;;;;;23.24;24.36;99934.16;3565969;40;20315;-71
2021/04/22 07:13:34;;;;;;;8.40;3.40;;;;;;;24.05;22.69;99922.72;3559242;40;20026;-70
2021/04/22 07:16:00;;;;;;;9.80;3.50;;;;;;;24.97;21.91;99925.78;3559189;40;20170;-69
2021/04/22 07:18:27;;;;;;;14.15;4.55;;;;;;;23.57;23.57;99919.41;3557932;40;20114;-69
2021/04/22 07:20:54;;;;;;;11.73;4.90;;;;;;;21.65;25.83;99925.84;3558995;40;20037;-69
2021/04/22 07:23:21;;;;;;;9.25;4.43;;;;;;;19.69;27.46;99937.19;3559148;40;20062;-70
2021/04/22 07:25:48;;;;;;;12.48;4.68;;;;;;;18.41;28.58;99952.50;3558830;40;20411;-70
2021/04/22 07:28:15;;;;;;;13.05;5.18;;;;;;;19.14;27.49;99949.53;3557837;40;20073;-69
2021/04/22 07:30:42;;;;;;;13.20;4.30;;;;;;;19.66;27.00;99941.91;3559079;40;20042;-71
2021/04/22 07:33:09;;;;;;;10.40;4.20;;;;;;;21.39;24.51;99944.16;3565561;40;20049;-69
2021/04/22 07:35:37;;;;;;;10.65;4.47;;;;;;;21.16;24.38;99954.97;3566337;40;20030;-68
2021/04/22 07:38:04;;;;;;;10.70;3.10;;;;;;;20.50;24.90;99962.44;3559145;40;20070;-69
2021/04/22 07:40:31;;;;;;;7.63;3.58;;;;;;;21.40;23.28;99951.19;3545560;40;20078;-70
2021/04/22 07:42:58;;;;;;;11.88;4.57;;;;;;;24.30;20.83;99946.09;3539090;40;20319;-70
2021/04/22 07:45:27;;;;;;;11.70;4.00;;;;;;;28.33;17.25;99942.44;3539186;40;20071;-69
2021/04/22 07:47:54;;;;;;;11.02;4.65;;;;;;;30.56;15.11;99935.63;3538513;40;20383;-70
2021/04/22 07:50:21;;;;;;;10.20;4.68;;;;;;;31.21;14.67;99941.75;3546123;40;20121;-71
2021/04/22 07:52:48;;;;;;;12.77;4.10;;;;;;;31.43;14.81;99932.50;3546752;40;20035;-70
2021/04/22 07:55:16;;;;;;;6.60;3.78;;;;;;;32.52;13.11;99939.72;3539481;40;20042;-69
2021/04/22 07:57:44;;;;;;;11.48;4.40;;;;;;;33.26;12.95;99940.25;3538517;40;20396;-68
2021/04/22 08:00:13;;;;;;;9.35;3.58;;;;;;;30.25;14.69;99927.06;3546228;40;20067;-70
2021/04/22 08:02:41;;;;;;;10.52;3.83;;;;;;;26.83;17.71;99946.06;3538987;40;20038;-68
2021/04/22 08:05:09;;;;;;;10.10;4.25;;;;;;;27.26;17.72;99950.19;3539914;40;20039;-69
2021/04/22 08:07:36;;;;;;;8.20;3.97;;;;;;;29.88;14.87;99947.84;3546154;40;20129;-69
2021/04/22 08:10:04;;;;;;;6.60;3.10;;;;;;;27.30;16.47;99945.34;3542392;40;20049;-68
2021/04/22 08:12:31;;;;;;;6.90;3.85;;;;;;;26.26;17.31;99962.22;3548266;40;20287;-69
2021/04/22 08:15:00;;;;;;;9.27;3.75;;;;;;;27.83;15.86;99954.53;3547878;40;20049;-69
2021/04/22 08:17:26;;;;;;;6.95;3.63;;;;;;;25.67;16.91;99963.22;3548802;40;20039;-69
2021/04/22 08:19:52;;;;;;;6.30;3.50;;;;;;;27.96;15.20;99954.78;3547868;40;20553;-69
2021/04/22 08:22:19;;;;;;;6.82;3.95;;;;;;;31.61;12.73;99950.09;3548641;40;20074;-69
2021/04/22 08:24:45;;;;;;;7.07;3.50;;;;;;;33.87;11.04;99949.88;3549388;40;20422;-69
2021/04/22 08:27:12;;;;;;;8.73;3.78;;;;;;;35.31;10.20;99940.75;3549383;40;20042;-70
2021/04/22 08:29:38;;;;;;;10.57;4.05;;;;;;;36.67;9.41;99939.31;3555698;40;20299;-71
2021/04/22 08:32:07;;;;;;;8.25;3.65;;;;;;;37.38;9.07;99943.69;3549447;40;20406;-69
2021/04/22 08:34:33;;;;;;;10.80;3.28;;;;;;;35.67;9.62;99950.84;3548579;40;20300;-67
2021/04/22 08:37:01;;;;;;;8.18;3.63;;;;;;;32.98;10.93;99959.53;3548380;40;20042;-70
2021/04/22 08:39:27;;;;;;;8.70;3.45;;;;;;;31.39;12.06;99952.91;3547797;40;20057;-70
2021/04/22 08:41:54;;;;;;;10.65;4.43;;;;;;;27.78;14.46;99970.38;3548193;40;20396;-69
2021/04/22 08:44:21;;;;;;;10.45;4.55;;;;;;;25.93;16.33;99973.91;3546994;40;20034;-69
2021/04/22 08:46:47;;;;;;;10.38;4.72;;;;;;;29.85;12.71;99977.97;3548660;40;20387;-69
2021/04/22 08:49:15;;;;;;;7.97;4.22;;;;;;;31.78;11.40;99959.56;3548810;40;20079;-72
2021/04/22 08:51:42;;;;;;;8.80;3.47;;;;;;;33.22;10.29;99951.75;3548459;40;20078;-71
2021/04/22 08:54:09;;;;;;;10.35;4.47;;;;;;;34.74;9.50;99957.22;3547692;40;20343;-68
2021/04/22 08:56:37;;;;;;;7.45;3.63;;;;;;;35.23;9.28;99962.88;3547577;40;20299;-70
2021/04/22 08:59:05;;;;;;;11.43;4.07;;;;;;;35.79;9.39;99959.88;3548224;40;20041;-72
2021/04/22 09:01:32;;;;;;;11.23;3.97;;;;;;;36.28;9.25;99947.06;3548858;40;20034;-68
2021/04/22 09:04:00;;;;;;;8.25;3.35;;;;;;;32.50;10.95;99958.09;3548382;40;20070;-69
2021/04/22 09:06:28;;;;;;;9.40;3.22;;;;;;;32.49;11.54;99959.13;3548905;40;20041;-68
2021/04/22 09:08:56;;;;;;;8.88;3.80;;;;;;;29.93;12.83;99980.53;3547914;40;20034;-69
2021/04/22 09:11:25;;;;;;;12.35;4.30;;;;;;;26.62;15.14;99981.56;3548954;40;20112;-69
2021/04/22 09:13:51;;;;;;;9.13;3.63;;;;;;;26.82;14.98;99978.53;3548326;40;20120;-68
2021/04/22 09:16:19;;;;;;;9.63;4.03;;;;;;;30.53;12.37;99962.25;3539371;40;20041;-68
2021/04/22 09:18:48;;;;;;;8.80;3.38;;;;;;;32.40;10.73;99944.91;3538005;40;20290;-68
2021/04/22 09:21:21;;;;;;;6.72;4.00;;;;;;;31.62;10.99;99960.72;3537759;40;20037;-68
2021/04/22 09:24:06;;;;;;;8.68;3.85;;;;;;;30.73;12.30;99965.16;3538661;40;20397;-69
2021/04/22 09:26:42;;;;;;;9.18;4.07;;;;;;;34.33;10.15;99965.06;3536573;40;20043;-69
2021/04/22 09:29:10;;;;;;;11.75;2.90;;;;;;;36.48;8.73;99952.25;3537722;40;20070;-69
2021/04/22 09:31:37;;;;;;;6.95;3.33;;;;;;;36.08;8.25;99957.44;3537753;40;20127;-69
2021/04/22 09:34:10;;;;;;;10.38;3.80;;;;;;;36.03;9.06;99955.41;3537794;40;20031;-68
2021/04/22 09:36:46;;;;;;;7.45;3.55;;;;;;;35.73;8.90;99939.84;3538319;40;20035;-69
2021/04/22 09:39:16;;;;;;;8.40;3.58;;;;;;;30.37;11.61;99970.63;3537546;40;20363;-68
2021/04/22 09:41:43;;;;;;;10.43;3.80;;;;;;;26.72;14.39;99973.34;3538246;40;20153;-69
2021/04/22 09:44:11;;;;;;;9.00;4.25;;;;;;;29.06;12.77;99968.75;3537366;40;20070;-68
2021/04/22 09:46:43;;;;;;;7.82;3.67;;;;;;;30.35;11.41;99962.72;3539146;40;20039;-68
2021/04/22 09:49:13;;;;;;;8.70;3.85;;;;;;;30.73;11.65;99959.75;3539851;40;20042;-68
2021/04/22 09:51:40;;;;;;;9.10;4.38;;;;;;;29.73;12.22;99974.06;3544652;40;20124;-67
2021/04/22 09:54:09;;;;;;;14.35;8.82;;;;;;;27.87;13.98;99955.84;3545660;40;20147;-68
2021/04/22 09:56:46;;;;;;;13.37;5.13;;;;;;;25.62;15.89;99962.88;3544917;40;20041;-69
2021/04/22 09:59:17;;;;;;;7.47;3.50;;;;;;;24.05;16.79;99984.31;3546814;40;20543;-69
2021/04/22 10:01:43;;;;;;;9.38;3.80;;;;;;;22.65;18.33;99982.56;3543303;40;20166;-69
2021/04/22 10:04:10;;;;;;;8.65;3.65;;;;;;;21.89;19.54;99979.69;3546885;40;20335;-68
2021/04/22 10:06:38;;;;;;;8.77;3.72;;;;;;;21.56;20.26;99978.19;3547021;40;20429;-68
2021/04/22 10:09:05;;;;;;;7.78;3.58;;;;;;;21.38;20.01;99983.31;3546022;40;20041;-68
2021/04/22 10:11:42;;;;;;;8.00;3.30;;;;;;;20.79;20.04;99978.63;3545825;40;20042;-69
2021/04/22 10:14:09;;;;;;;9.55;3.95;;;;;;;20.25;21.24;99982.25;3547562;40;20045;-68
2021/04/22 10:16:35;;;;;;;9.88;3.55;;;;;;;20.26;20.91;99973.28;3546247;40;20131;-68
2021/04/22 10:19:01;;;;;;;12.15;3.50;;;;;;;20.44;20.72;99970.13;3545980;40;20050;-69
2021/04/22 10:21:28;;;;;;;9.57;4.05;;;;;;;20.80;20.79;99971.47;3546942;40;20053;-68
2021/04/22 10:24:02;;;;;;;8.27;3.00;;;;;;;20.08;21.54;99964.16;3547803;40;20047;-69
2021/04/22 10:26:29;;;;;;;7.57;3.25;;;;;;;19.62;21.58;99965.25;3546863;40;20070;-68
2021/04/22 10:28:56;;;;;;;10.38;3.63;;;;;;;18.93;22.16;99964.47;3547497;40;20038;-67
2021/04/22 10:31:25;;;;;;;11.88;3.85;;;;;;;18.71;22.68;99980.38;3545688;40;20034;-68
2021/04/22 10:33:53;;;;;;;8.63;4.13;;;;;;;18.42;22.85;99972.78;3546676;40;20042;-69
2021/04/22 10:36:21;;;;;;;7.22;4.43;;;;;;;17.95;23.27;99973.66;3548089;40;20039;-68
2021/04/22 10:38:50;;;;;;;7.53;3.47;;;;;;;17.21;23.75;99972.75;3546323;40;20446;-67
2021/04/22 10:41:17;;;;;;;8.15;3.72;;;;;;;17.07;23.83;99975.50;3545319;40;20404;-69
2021/04/22 10:43:44;;;;;;;6.50;3.83;;;;;;;16.92;23.94;99965.97;3548016;40;20098;-69
2021/04/22 10:46:11;;;;;;;5.13;3.05;;;;;;;16.81;24.01;99973.81;3547035;40;20039;-68
2021/04/22 10:48:38;;;;;;;10.57;4.03;;;;;;;16.90;23.85;99976.69;3548024;40;20482;-70
2021/04/22 10:51:06;;;;;;;7.55;3.97;;;;;;;16.87;23.57;99978.69;3547454;40;20082;-69
2021/04/22 10:53:38;;;;;;;8.88;3.70;;;;;;;16.66;23.76;99984.50;3545045;40;20038;-70
2021/04/22 10:56:06;;;;;;;7.32;3.50;;;;;;;16.44;24.05;99979.75;3548756;40;20046;-71
2021/04/22 10:58:39;;;;;;;11.63;4.18;;;;;;;16.27;24.57;99979.19;3546207;40;20041;-70
2021/04/22 11:01:07;;;;;;;9.40;3.47;;;;;;;16.16;25.02;99983.38;3546665;40;20071;-70
2021/04/22 11:03:38;;;;;;;6.25;3.20;;;;;;;16.03;24.79;99977.22;3547216;40;20078;-70
2021/04/22 11:06:07;;;;;;;9.23;3.40;;;;;;;16.05;25.17;99979.75;3547868;40;20054;-71
2021/04/22 11:08:37;;;;;;;8.00;3.00;;;;;;;16.16;25.19;99970.16;3546566;40;20416;-69
2021/04/22 11:11:16;;;;;;;8.05;3.03;;;;;;;16.38;24.85;99981.97;3547597;40;20050;-71
2021/04/22 11:13:46;;;;;;;6.78;3.08;;;;;;;16.84;24.55;99984.19;3550546;40;20300;-70
2021/04/22 11:16:13;;;;;;;7.53;2.88;;;;;;;17.09;24.19;99989.50;3546859;40;20042;-71
2021/04/22 11:18:42;;;;;;;8.18;3.45;;;;;;;17.13;23.87;99992.78;3547166;40;20322;-71
2021/04/22 11:21:22;;;;;;;12.50;3.42;;;;;;;16.74;24.63;100000.69;3546358;40;20058;-71
2021/04/22 11:23:49;;;;;;;5.55;3.00;;;;;;;16.68;24.78;99992.34;3545223;40;20057;-71
2021/04/22 11:26:21;;;;;;;4.75;2.75;;;;;;;16.94;25.23;99987.91;3545462;40;20035;-72
2021/04/22 11:28:48;;;;;;;8.93;3.20;;;;;;;17.06;24.79;99987.88;3546174;40;20109;-71